Time;durP1;ratioP1;P1;durP2;ratioP2;P2;SDS_P1;SDS_P2;PMS_P1;PMS_P2;Temp;Humidity;BMP_temperature;BMP_pressure;BME280_temperature;BME280_humidity;BME280_pressure;Samples;Min_cycle;Max_cycle;Signal;HPM_P1;HPM_P2
2023/10/12 00:00:24;;;;;;;5.30;3.70;;;;;;;13.20;43.56;99867.55;106976;1264;69067;-65
2023/10/12 00:02:50;;;;;;;7.90;3.10;;;;;;;13.21;43.63;99863.42;107114;1263;72340;-65
2023/10/12 00:05:19;;;;;;;9.10;4.00;;;;;;;13.23;43.68;99862.60;106845;1264;60746;-65
2023/10/12 00:07:49;;;;;;;7.30;3.80;;;;;;;13.24;43.71;99853.09;108276;1253;59761;-65
2023/10/12 00:12:50;;;;;;;6.90;3.70;;;;;;;13.24;44.03;99853.23;108260;1254;69776;-65
2023/10/12 00:15:25;;;;;;;10.00;3.80;;;;;;;13.24;43.97;99851.13;108289;1254;72621;-65
2023/10/12 00:17:56;;;;;;;9.30;3.90;;;;;;;13.25;43.94;99843.50;108344;1253;58852;-64
2023/10/12 00:20:33;;;;;;;5.60;3.60;;;;;;;13.28;44.40;99839.14;108383;1253;58717;-65
2023/10/12 00:23:10;;;;;;;7.20;3.60;;;;;;;13.32;44.31;99835.11;108521;1253;73900;-66
2023/10/12 00:25:47;;;;;;;9.90;3.90;;;;;;;13.35;44.46;99830.02;108396;1253;69139;-64
2023/10/12 00:28:18;;;;;;;6.90;3.60;;;;;;;13.38;44.64;99822.84;108415;1254;71573;-64
2023/10/12 00:30:49;;;;;;;7.30;4.00;;;;;;;13.40;44.44;99816.91;108377;1253;59007;-64
2023/10/12 00:33:18;;;;;;;7.10;4.10;;;;;;;13.43;44.67;99809.16;108141;1253;58628;-64
2023/10/12 00:35:51;;;;;;;4.30;3.30;;;;;;;13.46;44.76;99807.27;108290;1254;71925;-64
2023/10/12 00:38:23;;;;;;;5.40;3.40;;;;;;;13.49;44.68;99810.45;108202;1254;69575;-64
2023/10/12 00:41:04;;;;;;;7.70;3.70;;;;;;;13.51;45.01;99805.09;108166;1254;72191;-64
2023/10/12 00:43:43;;;;;;;8.60;3.80;;;;;;;13.54;45.07;99806.70;108215;1254;58795;-65
2023/10/12 00:49:13;;;;;;;10.00;4.30;;;;;;;13.56;45.31;99793.73;108224;1253;73434;-64
2023/10/12 00:51:40;;;;;;;7.60;3.90;;;;;;;13.60;45.27;99791.40;108390;1254;70652;-64
2023/10/12 00:54:10;;;;;;;6.00;3.20;;;;;;;13.68;45.12;99790.66;108199;1254;72535;-66
2023/10/12 00:56:43;;;;;;;6.10;2.90;;;;;;;13.69;45.32;99786.02;108354;1254;59924;-64
2023/10/12 00:59:12;;;;;;;6.90;3.70;;;;;;;13.69;45.28;99795.35;108377;1253;59717;-64
2023/10/12 01:01:40;;;;;;;7.80;3.60;;;;;;;13.71;45.47;99790.64;108402;1253;73640;-64
2023/10/12 01:04:15;;;;;;;4.50;3.10;;;;;;;13.72;45.52;99783.87;108341;1253;69050;-64
2023/10/12 01:06:58;;;;;;;11.40;3.80;;;;;;;13.74;45.66;99782.75;108045;1254;71771;-65
2023/10/12 01:09:38;;;;;;;11.60;4.30;;;;;;;13.71;45.70;99782.71;108222;1254;59017;-65
2023/10/12 01:12:13;;;;;;;6.30;3.20;;;;;;;13.74;45.76;99774.10;108275;1253;59663;-65
2023/10/12 01:14:43;;;;;;;5.40;3.50;;;;;;;13.78;45.80;99771.08;108012;1254;73324;-64
2023/10/12 01:17:35;;;;;;;5.50;3.60;;;;;;;13.79;45.80;99770.67;108260;1253;69261;-64
2023/10/12 01:20:02;;;;;;;5.90;3.30;;;;;;;13.76;45.80;99765.90;108112;1253;72928;-63
2023/10/12 01:22:34;;;;;;;10.00;3.70;;;;;;;13.76;45.90;99765.55;108360;1254;59879;-65
2023/10/12 01:25:10;;;;;;;12.50;3.90;;;;;;;13.75;45.96;99760.67;108324;1254;58812;-66
2023/10/12 01:27:41;;;;;;;6.60;3.60;;;;;;;13.77;45.92;99757.06;108353;1253;72949;-65
2023/10/12 01:30:23;;;;;;;7.40;3.40;;;;;;;13.73;46.07;99750.56;108408;1253;69154;-65
2023/10/12 01:32:57;;;;;;;16.20;4.20;;;;;;;13.69;46.21;99751.65;108371;1253;73638;-65
2023/10/12 01:35:38;;;;;;;10.80;3.90;;;;;;;13.69;46.18;99751.84;108312;1254;59793;-66
2023/10/12 01:38:08;;;;;;;8.30;3.60;;;;;;;13.70;46.21;99748.62;108239;1253;59748;-66
2023/10/12 01:40:45;;;;;;;11.80;3.60;;;;;;;13.70;46.31;99747.18;108429;1254;73094;-65
2023/10/12 01:43:13;;;;;;;8.10;4.00;;;;;;;13.68;46.28;99747.10;108535;1253;68564;-65
2023/10/12 01:45:41;;;;;;;;;;;;;;;13.65;46.48;99745.17;108247;1253;72596;-66
2023/10/12 01:48:20;;;;;;;7.50;3.80;;;;;;;13.62;46.39;99744.63;108401;1254;60954;-67
2023/10/12 01:50:50;;;;;;;7.90;3.60;;;;;;;13.60;46.59;99754.08;108418;1253;59809;-66
2023/10/12 01:53:26;;;;;;;6.70;3.60;;;;;;;13.58;46.61;99752.94;108397;1254;72882;-65
2023/10/12 01:55:54;;;;;;;15.00;3.70;;;;;;;13.58;46.71;99755.95;108492;1253;69982;-64
2023/10/12 01:58:27;;;;;;;6.80;3.50;;;;;;;13.57;46.58;99757.23;108196;1254;72345;-64
2023/10/12 02:01:04;;;;;;;7.10;3.50;;;;;;;13.53;46.78;99754.63;108275;1256;60532;-64
2023/10/12 02:03:32;;;;;;;11.50;3.60;;;;;;;13.45;47.07;99752.54;108524;1253;59731;-64
2023/10/12 02:06:06;;;;;;;7.40;3.70;;;;;;;13.41;47.04;99756.46;108315;1253;73176;-65
2023/10/12 02:13:47;;;;;;;7.40;3.80;;;;;;;13.32;47.62;99749.55;108051;1252;60486;-66
2023/10/12 02:16:25;;;;;;;5.30;3.30;;;;;;;13.30;47.56;99749.80;108239;1253;59700;-64
2023/10/12 02:18:55;;;;;;;6.90;3.70;;;;;;;13.28;47.61;99745.16;108252;1254;72280;-65
2023/10/12 02:21:25;;;;;;;7.80;3.70;;;;;;;13.26;47.78;99742.09;108125;1253;69445;-65
2023/10/12 02:24:11;;;;;;;13.10;3.80;;;;;;;13.21;47.91;99742.00;108358;1254;72886;-66
2023/10/12 02:26:51;;;;;;;7.60;3.50;;;;;;;13.18;48.11;99740.21;108516;1253;59771;-66
2023/10/12 02:29:19;;;;;;;5.30;3.80;;;;;;;13.19;48.20;99741.02;108233;1253;59885;-65
2023/10/12 02:34:18;;;;;;;9.20;4.00;;;;;;;13.10;48.37;99740.79;108428;1253;70047;-69
2023/10/12 02:39:46;;;;;;;5.90;3.60;;;;;;;13.05;48.65;99735.26;107853;1253;59830;-66
2023/10/12 02:47:24;;;;;;;8.10;3.90;;;;;;;13.01;48.91;99727.02;108239;1254;69283;-65
2023/10/12 02:50:00;;;;;;;7.80;3.50;;;;;;;13.01;48.89;99725.58;108248;1254;72261;-65
2023/10/12 02:52:34;;;;;;;8.90;4.00;;;;;;;13.02;49.12;99726.80;107943;1254;62190;-65
2023/10/12 02:58:17;;;;;;;9.40;3.80;;;;;;;12.98;49.24;99720.48;108385;1253;73278;-66
2023/10/12 03:00:45;;;;;;;7.30;3.70;;;;;;;12.94;49.57;99717.34;108408;1254;69309;-65
2023/10/12 03:03:26;;;;;;;5.60;3.20;;;;;;;12.94;49.79;99716.81;108357;1254;72511;-65
2023/10/12 03:05:58;;;;;;;6.90;3.90;;;;;;;12.94;50.01;99714.71;108357;1253;60252;-64
2023/10/12 03:08:34;;;;;;;8.70;4.00;;;;;;;12.93;49.98;99714.08;108388;1254;59754;-65
2023/10/12 03:11:11;;;;;;;8.50;4.00;;;;;;;12.89;50.11;99713.73;108187;1253;72997;-65
2023/10/12 03:13:42;;;;;;;8.40;4.00;;;;;;;12.87;50.36;99718.38;108370;1253;68874;-64
2023/10/12 03:16:20;;;;;;;8.10;4.10;;;;;;;12.85;50.43;99708.64;108450;1253;72387;-65
2023/10/12 03:19:00;;;;;;;9.70;3.90;;;;;;;12.86;50.22;99710.91;108326;1252;60239;-65
2023/10/12 03:21:33;;;;;;;9.30;3.80;;;;;;;12.86;50.45;99713.89;108472;1253;59668;-62
2023/10/12 03:24:03;;;;;;;12.70;3.90;;;;;;;12.80;50.84;99707.84;108408;1253;73969;-63
2023/10/12 03:26:33;;;;;;;11.90;4.10;;;;;;;12.80;50.82;99706.95;108482;1252;69190;-64
2023/10/12 03:37:01;;;;;;;5.70;3.60;;;;;;;12.78;51.35;99701.10;108493;1252;72669;-66
2023/10/12 03:39:43;;;;;;;6.10;3.50;;;;;;;12.77;51.24;99706.23;108485;1253;69119;-65
2023/10/12 03:42:41;;;;;;;10.00;3.90;;;;;;;12.76;51.74;99707.67;108410;1252;71181;-66
2023/10/12 03:45:08;;;;;;;5.90;3.40;;;;;;;12.76;51.58;99709.99;108485;1253;59790;-64
2023/10/12 03:48:00;;;;;;;9.60;3.70;;;;;;;12.74;51.90;99711.70;108473;1253;59649;-63
2023/10/12 03:50:27;;;;;;;7.50;4.00;;;;;;;12.77;51.87;99708.73;108514;1252;73734;-64
2023/10/12 03:52:59;;;;;;;4.50;3.40;;;;;;;12.76;51.88;99709.29;108522;1253;69771;-65
2023/10/12 03:55:28;;;;;;;5.80;3.60;;;;;;;12.74;52.06;99707.27;108486;1252;71923;-65
2023/10/12 03:58:06;;;;;;;9.00;3.60;;;;;;;12.70;52.45;99705.89;108426;1253;60156;-62
2023/10/12 04:01:05;;;;;;;13.20;3.60;;;;;;;12.69;52.67;99702.77;108505;1252;59000;-63
2023/10/12 04:03:37;;;;;;;8.40;3.80;;;;;;;12.67;52.94;99707.08;108456;1252;73622;-62
2023/10/12 04:06:15;;;;;;;5.90;3.40;;;;;;;12.62;52.96;99696.96;108474;1253;72796;-63
2023/10/12 04:08:51;;;;;;;10.10;3.80;;;;;;;12.62;53.28;99696.63;108302;1253;73004;-63
2023/10/12 04:21:22;;;;;;;6.90;3.20;;;;;;;12.63;53.39;99688.14;108485;1253;72407;-65
2023/10/12 04:29:08;;;;;;;11.10;3.60;;;;;;;12.54;54.20;99696.83;108490;1253;74348;-63
2023/10/12 04:34:15;;;;;;;7.50;3.50;;;;;;;12.54;54.68;99697.91;108516;1253;72467;-64
2023/10/12 04:36:48;;;;;;;9.10;3.60;;;;;;;12.57;54.53;99702.13;108483;1252;58990;-66
2023/10/12 04:39:25;;;;;;;10.10;3.70;;;;;;;12.61;54.68;99702.98;108502;1252;60005;-65
2023/10/12 04:47:07;;;;;;;9.70;4.20;;;;;;;12.71;54.72;99709.55;108338;1252;71715;-65
2023/10/12 04:54:49;;;;;;;8.10;3.40;;;;;;;12.74;55.11;99705.00;108324;1254;73965;-64
2023/10/12 04:57:26;;;;;;;11.60;4.00;;;;;;;12.78;55.30;99697.05;108534;1252;69225;-63
2023/10/12 05:00:09;;;;;;;9.70;3.80;;;;;;;12.81;55.17;99699.17;108492;1253;71202;-63
2023/10/12 05:02:53;;;;;;;6.00;4.00;;;;;;;12.84;55.36;99698.11;108458;1252;60727;-65
2023/10/12 05:07:57;;;;;;;8.90;3.50;;;;;;;12.87;55.54;99696.09;108418;1252;74481;-65
2023/10/12 05:10:38;;;;;;;9.20;3.50;;;;;;;12.91;55.62;99694.26;108343;1253;69138;-65
2023/10/12 05:13:10;;;;;;;14.00;4.30;;;;;;;12.99;55.49;99699.16;108291;1252;72550;-65
2023/10/12 05:18:25;;;;;;;7.90;3.40;;;;;;;13.04;55.93;99700.14;108327;1254;60633;-63
2023/10/12 05:20:53;;;;;;;6.30;4.10;;;;;;;13.06;56.02;99696.48;108440;1253;73645;-64
2023/10/12 05:23:21;;;;;;;6.60;4.20;;;;;;;13.12;56.17;99696.20;108456;1253;69664;-63
2023/10/12 05:28:27;;;;;;;6.10;3.40;;;;;;;13.25;56.36;99701.84;108451;1254;59764;-64
2023/10/12 05:30:59;;;;;;;11.90;4.00;;;;;;;13.29;56.61;99704.30;108438;1252;59669;-62
2023/10/12 05:36:10;;;;;;;10.90;4.20;;;;;;;13.35;56.73;99703.08;108485;1253;70249;-64
2023/10/12 05:39:05;;;;;;;8.20;3.80;;;;;;;13.42;56.68;99703.93;108523;1253;72324;-62
2023/10/12 05:44:26;;;;;;;6.80;4.40;;;;;;;13.53;56.78;99706.69;101447;1294;601113;-63
2023/10/12 05:46:59;;;;;;;6.10;4.10;;;;;;;13.50;57.08;99701.39;103564;1266;59366;-63
2023/10/12 05:49:27;;;;;;;7.60;3.90;;;;;;;13.57;57.12;99696.63;103606;1267;59885;-62
2023/10/12 05:51:56;;;;;;;8.30;3.90;;;;;;;13.56;57.20;99695.99;103579;1270;72111;-63
2023/10/12 05:54:24;;;;;;;7.40;3.90;;;;;;;13.53;57.60;99692.29;103561;1272;69731;-63
2023/10/12 05:56:52;;;;;;;;;;;;;;;13.57;58.05;99695.75;103073;1268;1229431;-64
2023/10/12 05:59:20;;;;;;;7.70;3.70;;;;;;;13.61;57.97;99699.72;104673;1254;60886;-63
2023/10/12 06:01:51;;;;;;;6.90;3.70;;;;;;;13.68;57.56;99702.20;104574;1256;60653;-64
2023/10/12 06:04:19;;;;;;;11.40;3.80;;;;;;;13.72;57.95;99700.58;104460;1260;72576;-65
2023/10/12 06:06:51;;;;;;;12.20;4.30;;;;;;;13.75;58.02;99696.34;104265;1258;69133;-64
2023/10/12 06:09:20;;;;;;;11.10;4.50;;;;;;;13.78;58.35;99692.69;104625;1256;73439;-64
2023/10/12 06:11:49;;;;;;;7.70;3.90;;;;;;;13.79;58.56;99693.85;105977;1254;60186;-65
2023/10/12 06:14:20;;;;;;;6.90;3.90;;;;;;;13.83;58.52;99693.97;108069;1254;59748;-64
2023/10/12 06:16:54;;;;;;;7.80;4.00;;;;;;;13.92;59.02;99694.20;107941;1254;73763;-65
2023/10/12 06:19:26;;;;;;;11.20;3.90;;;;;;;13.99;59.07;99694.34;104369;1263;69677;-63
2023/10/12 06:24:44;;;;;;;10.80;3.70;;;;;;;14.06;59.31;99699.59;104376;1262;59878;-63
2023/10/12 06:29:53;;;;;;;10.20;3.50;;;;;;;14.22;59.40;99700.98;104350;1267;72063;-66
2023/10/12 06:32:40;;;;;;;5.40;4.00;;;;;;;14.32;59.21;99697.77;104238;1261;68968;-67
2023/10/12 06:45:51;;;;;;;12.80;3.50;;;;;;;14.74;59.78;99682.30;105573;1254;69188;-62
2023/10/12 06:49:07;;;;;;;7.10;3.80;;;;;;;14.87;60.32;99688.55;106210;1258;72464;-64
2023/10/12 06:51:16;;;;;;;9.10;3.50;;;;;;;15.01;60.47;99681.04;104660;1254;59969;-62
2023/10/12 06:53:51;;;;;;;7.20;3.50;;;;;;;15.15;60.18;99675.94;104494;1256;60058;-62
2023/10/12 06:59:20;;;;;;;5.10;2.80;;;;;;;15.42;59.64;99679.05;104749;1256;69129;-62
2023/10/12 07:02:29;;;;;;;6.30;3.00;;;;;;;15.53;60.65;99676.25;104018;1256;72503;-62
2023/10/12 07:04:57;;;;;;;10.20;3.90;;;;;;;15.70;60.57;99662.11;104390;1255;61143;-63
2023/10/12 07:07:36;;;;;;;5.40;3.50;;;;;;;15.84;60.43;99668.63;104283;1261;60815;-62
2023/10/12 07:12:42;;;;;;;12.30;3.70;;;;;;;16.16;59.95;99669.46;104618;1256;69168;-63
2023/10/12 07:15:21;;;;;;;12.10;3.40;;;;;;;16.24;59.90;99671.70;104256;1256;72287;-61
2023/10/12 07:17:50;;;;;;;5.50;3.70;;;;;;;16.38;59.75;99663.21;104603;1256;59687;-62
2023/10/12 07:20:40;;;;;;;9.20;3.50;;;;;;;16.49;59.64;99664.06;104497;1260;60799;-61
2023/10/12 07:25:48;;;;;;;7.40;3.20;;;;;;;16.72;59.26;99659.52;104389;1257;70354;-63
2023/10/12 07:28:18;;;;;;;9.60;3.70;;;;;;;16.84;59.87;99651.41;104344;1258;72438;-62
2023/10/12 07:33:33;;;;;;;5.00;3.40;;;;;;;17.15;58.92;99641.71;108027;1254;60105;-71
2023/10/12 07:36:08;;;;;;;;;;;;;;;17.29;58.65;99644.08;108093;1255;72737;-68
2023/10/12 07:38:36;;;;;;;4.70;3.10;;;;;;;17.43;58.43;99644.67;108037;1253;70439;-68
2023/10/12 07:41:04;;;;;;;6.70;3.20;;;;;;;17.57;58.21;99636.58;108042;1255;72542;-69
2023/10/12 07:43:32;;;;;;;6.00;3.50;;;;;;;17.68;58.19;99632.83;107978;1255;59159;-68
2023/10/12 07:46:13;;;;;;;6.80;3.90;;;;;;;17.80;58.07;99624.85;108171;1254;59241;-66
2023/10/12 07:48:44;;;;;;;12.00;3.90;;;;;;;17.93;57.68;99628.23;108163;1256;73517;-68
2023/10/12 07:54:42;;;;;;;4.60;3.30;;;;;;;18.11;57.10;99617.81;107539;1256;72309;-66
2023/10/12 07:56:54;;;;;;;7.50;3.70;;;;;;;18.28;56.93;99625.23;107979;1255;59798;-69
2023/10/12 07:59:23;;;;;;;;;;;;;;;18.44;56.58;99621.92;108070;1255;59704;-66
2023/10/12 08:01:51;;;;;;;8.00;3.20;;;;;;;18.55;56.20;99622.32;108031;1256;73315;-66
2023/10/12 08:04:32;;;;;;;;;;;;;;;18.66;55.69;99623.77;108185;1256;69448;-65
2023/10/12 08:07:07;;;;;;;6.80;3.70;;;;;;;18.78;55.60;99616.48;107948;1255;75211;-67
2023/10/12 08:09:47;;;;;;;7.80;3.30;;;;;;;18.89;55.07;99617.08;107980;1255;60740;-67
2023/10/12 08:12:24;;;;;;;9.70;3.80;;;;;;;18.95;54.62;99612.52;107957;1255;59684;-66
2023/10/12 08:15:07;;;;;;;8.00;3.30;;;;;;;19.03;54.64;99615.77;108363;1253;72720;-67
2023/10/12 08:17:45;;;;;;;4.50;2.90;;;;;;;19.12;54.75;99612.42;108276;1253;69075;-69
2023/10/12 08:23:02;;;;;;;8.90;4.00;;;;;;;19.24;54.01;99619.45;108208;1253;59872;-68
2023/10/12 08:25:38;;;;;;;7.60;3.50;;;;;;;19.30;53.81;99614.94;108419;1253;60043;-71
2023/10/12 08:28:09;;;;;;;5.90;3.50;;;;;;;19.30;53.65;99617.27;108451;1253;72904;-68
2023/10/12 08:31:00;;;;;;;9.30;3.70;;;;;;;19.28;53.48;99622.38;108449;1253;70463;-68
2023/10/12 08:39:07;;;;;;;8.50;4.20;;;;;;;19.54;52.95;99610.73;108452;1252;60737;-63
2023/10/12 08:41:58;;;;;;;11.60;4.10;;;;;;;19.59;52.33;99608.98;108430;1253;73700;-63
2023/10/12 08:44:25;;;;;;;6.00;3.30;;;;;;;19.64;52.02;99607.89;108354;1252;69663;-61
2023/10/12 08:47:08;;;;;;;9.10;3.50;;;;;;;19.72;52.16;99604.09;108405;1253;72457;-63
2023/10/12 08:50:47;;;;;;;9.10;3.40;;;;;;;19.85;52.25;99598.79;108177;1254;59849;-63
2023/10/12 08:52:29;;;;;;;5.30;3.30;;;;;;;19.97;51.98;99602.03;108187;1253;59939;-62
2023/10/12 08:55:13;;;;;;;13.20;4.00;;;;;;;20.10;51.54;99604.56;108180;1253;72931;-63
2023/10/12 08:57:56;;;;;;;6.30;3.30;;;;;;;20.24;51.68;99596.09;108005;1253;69372;-62
2023/10/12 09:03:24;;;;;;;8.90;4.10;;;;;;;20.54;51.47;99585.75;108316;1252;59776;-62
2023/10/12 09:05:52;;;;;;;6.90;3.40;;;;;;;20.71;51.56;99578.47;108404;1253;59020;-62
2023/10/12 09:13:35;;;;;;;7.20;3.10;;;;;;;21.05;50.18;99578.39;108408;1253;72800;-59
2023/10/12 09:16:07;;;;;;;9.40;3.40;;;;;;;21.17;50.21;99571.98;108135;1253;59991;-61
2023/10/12 09:18:43;;;;;;;5.40;3.40;;;;;;;21.26;50.00;99569.73;108362;1253;59858;-62
2023/10/12 09:24:05;;;;;;;;;;;;;;;21.46;48.93;99557.27;108411;1253;69247;-61
2023/10/12 09:26:34;;;;;;;10.10;3.50;;;;;;;21.55;48.84;99548.77;108405;1251;72566;-62
2023/10/12 09:36:45;;;;;;;8.20;3.30;;;;;;;21.86;48.22;99538.34;108499;1253;69197;-64
2023/10/12 09:39:14;;;;;;;7.90;3.80;;;;;;;22.03;47.90;99526.81;108531;1253;72515;-63
2023/10/12 09:47:08;;;;;;;11.90;3.60;;;;;;;22.51;47.03;99515.77;108504;1252;59968;-60
2023/10/12 09:49:43;;;;;;;9.30;3.90;;;;;;;22.76;46.60;99515.38;108034;1251;72841;-62
2023/10/12 09:52:13;;;;;;;7.10;3.50;;;;;;;22.99;46.26;99506.51;108219;1251;68458;-61
2023/10/12 09:55:24;;;;;;;8.50;4.30;;;;;;;23.17;46.17;99501.27;108380;1251;72342;-61
2023/10/12 09:57:52;;;;;;;10.40;3.90;;;;;;;23.40;46.06;99497.70;108038;1252;59879;-63
2023/10/12 10:00:53;;;;;;;9.30;3.30;;;;;;;23.50;45.28;99490.66;108437;1253;61586;-61
2023/10/12 10:03:20;;;;;;;10.90;3.20;;;;;;;23.69;44.46;99485.14;108230;1252;72639;-62
2023/10/12 10:08:47;;;;;;;12.90;3.90;;;;;;;23.89;44.50;99475.33;107837;1253;72365;-63
2023/10/12 10:11:15;;;;;;;9.70;3.80;;;;;;;23.97;44.18;99464.70;108162;1255;59023;-61
2023/10/12 10:13:52;;;;;;;14.90;3.90;;;;;;;23.97;43.98;99465.02;108287;1252;60912;-62
2023/10/12 10:16:20;;;;;;;8.30;4.20;;;;;;;24.02;43.80;99462.42;108209;1252;73591;-63
2023/10/12 10:19:14;;;;;;;11.40;4.00;;;;;;;24.05;43.88;99459.05;108207;1251;70477;-63
2023/10/12 10:22:04;;;;;;;7.70;3.90;;;;;;;24.06;43.67;99453.90;108431;1253;72368;-65
2023/10/12 10:24:43;;;;;;;11.70;4.20;;;;;;;24.10;43.56;99456.77;108467;1253;59870;-63
2023/10/12 10:27:14;;;;;;;12.50;3.30;;;;;;;24.15;43.80;99445.05;108525;1251;58773;-62
2023/10/12 10:29:53;;;;;;;13.30;4.30;;;;;;;24.32;43.75;99442.10;108322;1250;74089;-64
2023/10/12 10:32:29;;;;;;;9.80;3.30;;;;;;;24.41;43.18;99435.64;108290;1251;69061;-62
2023/10/12 10:34:59;;;;;;;10.10;3.40;;;;;;;24.46;43.21;99439.33;108388;1251;72507;-63
2023/10/12 10:37:58;;;;;;;4.40;3.20;;;;;;;24.47;43.14;99437.35;108482;1251;60831;-61
2023/10/12 10:40:44;;;;;;;8.40;3.50;;;;;;;24.60;43.27;99432.64;108294;1253;60045;-60
2023/10/12 10:43:15;;;;;;;9.20;3.20;;;;;;;24.76;43.04;99432.00;108441;1251;74564;-60
2023/10/12 10:45:56;;;;;;;10.00;3.40;;;;;;;24.88;42.61;99431.77;108411;1251;69788;-60
2023/10/12 10:48:26;;;;;;;9.90;3.50;;;;;;;24.96;42.30;99423.48;108406;1252;72418;-62
2023/10/12 10:51:27;;;;;;;8.20;3.40;;;;;;;24.94;42.06;99423.99;108378;1253;60105;-61
2023/10/12 10:53:55;;;;;;;12.90;3.00;;;;;;;24.92;42.29;99421.90;108370;1251;59877;-61
2023/10/12 10:56:35;;;;;;;11.10;3.50;;;;;;;24.90;42.42;99416.15;108275;1251;72676;-61
2023/10/12 10:59:08;;;;;;;9.40;3.40;;;;;;;24.91;42.42;99413.96;108374;1251;69817;-62
2023/10/12 11:03:16;;;;;;;6.50;3.40;;;;;;;24.57;43.47;99404.23;101351;1292;601281;-64
2023/10/12 11:05:46;;;;;;;5.90;3.60;;;;;;;25.00;42.39;99404.48;103420;1268;59953;-61
2023/10/12 11:08:27;;;;;;;8.60;3.50;;;;;;;25.11;42.07;99396.17;104829;1266;59800;-60
2023/10/12 11:13:40;;;;;;;8.70;3.40;;;;;;;25.34;42.08;99387.08;107554;1260;70251;-62
2023/10/12 11:19:00;;;;;;;13.40;3.20;;;;;;;25.39;41.56;99384.73;104660;1257;60453;-61
2023/10/12 11:21:29;;;;;;;12.70;3.20;;;;;;;25.53;41.84;99377.13;104533;1259;59955;-62
2023/10/12 11:24:01;;;;;;;5.10;2.80;;;;;;;25.64;41.56;99374.30;104712;1254;72894;-64
2023/10/12 11:26:39;;;;;;;3.20;2.90;;;;;;;25.74;41.26;99372.54;104824;1259;68668;-62
2023/10/12 11:29:10;;;;;;;9.50;3.10;;;;;;;25.78;41.01;99367.55;104855;1254;72396;-62
2023/10/12 11:31:38;;;;;;;7.40;2.80;;;;;;;25.82;40.68;99365.29;104665;1259;60513;-61
2023/10/12 11:34:07;;;;;;;;;;;;;;;25.80;40.69;99370.41;104412;1264;62696;-62
2023/10/12 11:36:38;;;;;;;14.80;3.60;;;;;;;25.77;40.78;99364.21;104643;1259;72888;-61
2023/10/12 11:39:41;;;;;;;11.10;2.70;;;;;;;25.78;40.72;99360.18;104761;1254;70192;-62
2023/10/12 11:42:06;;;;;;;8.00;3.60;;;;;;;25.81;40.51;99352.88;104774;1267;72259;-63
2023/10/12 11:44:36;;;;;;;8.90;2.90;;;;;;;25.86;40.63;99353.70;104826;1260;59818;-63
2023/10/12 11:47:08;;;;;;;11.80;2.80;;;;;;;25.83;40.19;99349.07;104336;1259;59884;-63
2023/10/12 11:49:49;;;;;;;13.70;3.20;;;;;;;25.88;39.98;99343.87;104389;1259;73118;-63
2023/10/12 11:52:29;;;;;;;11.20;2.80;;;;;;;25.88;39.90;99349.40;108328;1252;71922;-60
2023/10/12 11:55:19;;;;;;;13.20;3.40;;;;;;;25.89;39.71;99350.06;108277;1252;72625;-61
2023/10/12 11:57:49;;;;;;;4.60;2.90;;;;;;;25.79;39.65;99345.02;108119;1253;62178;-61
2023/10/12 12:00:29;;;;;;;8.10;3.00;;;;;;;25.75;39.87;99342.45;108217;1253;60385;-60
2023/10/12 12:02:59;;;;;;;12.60;3.60;;;;;;;25.58;39.67;99346.81;108384;1254;72874;-61
2023/10/12 12:05:29;;;;;;;8.80;3.30;;;;;;;25.48;39.94;99343.19;108230;1253;70532;-62
2023/10/12 12:08:05;;;;;;;6.80;2.90;;;;;;;25.47;40.28;99336.70;108340;1252;74453;-60
2023/10/12 12:10:46;;;;;;;9.80;3.50;;;;;;;25.49;40.38;99334.75;108301;1253;60081;-61
2023/10/12 12:13:15;;;;;;;6.10;3.00;;;;;;;25.43;40.32;99330.55;108170;1253;60166;-62
2023/10/12 12:15:43;;;;;;;7.10;3.10;;;;;;;25.46;40.65;99322.13;107947;1254;73536;-61
2023/10/12 12:18:19;;;;;;;10.30;3.20;;;;;;;25.45;40.45;99321.86;107961;1253;70092;-62
2023/10/12 12:20:47;;;;;;;9.60;3.30;;;;;;;25.48;40.10;99318.09;108047;1256;72587;-61
2023/10/12 12:23:18;;;;;;;4.30;2.90;;;;;;;25.56;40.01;99318.89;108057;1254;60484;-60
2023/10/12 12:25:46;;;;;;;6.90;3.10;;;;;;;25.66;40.07;99312.89;108013;1253;61888;-63
2023/10/12 12:28:15;;;;;;;14.90;3.20;;;;;;;25.64;39.60;99316.73;108153;1254;72714;-63
2023/10/12 12:30:46;;;;;;;12.40;3.40;;;;;;;25.63;39.75;99309.29;108082;1253;69247;-64
2023/10/12 12:33:17;;;;;;;10.50;2.70;;;;;;;25.60;39.35;99312.86;108128;1254;72747;-64
2023/10/12 12:35:54;;;;;;;7.70;3.30;;;;;;;25.59;39.31;99306.64;108185;1253;60988;-62
2023/10/12 12:38:28;;;;;;;8.20;3.30;;;;;;;25.57;39.44;99306.00;108306;1256;59768;-61
2023/10/12 12:40:57;;;;;;;10.70;3.10;;;;;;;25.51;39.47;99299.89;108249;1254;72858;-62
2023/10/12 12:43:27;;;;;;;7.00;3.40;;;;;;;25.49;39.05;99302.63;108084;1254;71610;-62
2023/10/12 12:45:54;;;;;;;8.10;3.40;;;;;;;25.46;39.19;99291.05;108330;1254;71922;-61
2023/10/12 12:48:22;;;;;;;;;;;;;;;25.42;39.07;99288.86;108140;1253;60171;-62
2023/10/12 12:50:50;;;;;;;9.10;3.00;;;;;;;25.43;39.41;99282.48;108010;1254;60050;-63
2023/10/12 12:53:21;;;;;;;5.30;3.10;;;;;;;25.43;39.54;99276.08;108148;1253;72899;-63
2023/10/12 12:55:49;;;;;;;6.60;3.30;;;;;;;25.41;39.51;99267.98;107924;1253;69162;-62
2023/10/12 12:58:18;;;;;;;12.20;3.40;;;;;;;25.29;39.53;99269.44;107921;1256;71544;-62
2023/10/12 13:00:48;;;;;;;7.80;3.40;;;;;;;25.23;39.55;99262.04;107983;1255;60358;-62
2023/10/12 13:03:17;;;;;;;13.90;3.60;;;;;;;25.21;39.88;99256.67;108043;1254;59693;-62
2023/10/12 13:05:46;;;;;;;8.90;3.30;;;;;;;25.19;39.86;99254.75;108028;1254;72929;-63
2023/10/12 13:08:16;;;;;;;9.20;3.30;;;;;;;25.13;40.11;99251.66;108072;1254;69691;-62
2023/10/12 13:10:44;;;;;;;6.50;3.40;;;;;;;25.13;40.42;99253.03;108135;1254;73210;-62
2023/10/12 13:13:12;;;;;;;6.30;2.70;;;;;;;25.15;40.56;99254.27;108185;1254;59830;-62
2023/10/12 13:15:47;;;;;;;12.00;2.70;;;;;;;25.07;40.65;99248.14;108190;1259;59655;-63
2023/10/12 13:18:15;;;;;;;10.20;3.00;;;;;;;25.00;40.88;99240.98;108227;1253;72859;-62
2023/10/12 13:20:46;;;;;;;5.60;3.00;;;;;;;24.99;41.19;99242.89;108002;1254;69227;-61
2023/10/12 13:23:17;;;;;;;5.70;2.70;;;;;;;24.96;41.25;99243.64;108139;1254;72325;-61
2023/10/12 13:25:46;;;;;;;5.10;2.70;;;;;;;24.93;41.52;99239.20;108343;1253;59924;-66
2023/10/12 13:28:15;;;;;;;7.40;2.90;;;;;;;24.95;41.53;99233.58;108075;1254;59334;-62
2023/10/12 13:30:44;;;;;;;5.70;2.50;;;;;;;24.92;41.67;99232.95;108085;1256;73377;-62
2023/10/12 13:33:13;;;;;;;6.00;2.80;;;;;;;24.90;41.52;99228.95;108102;1254;70805;-63
2023/10/12 13:38:12;;;;;;;7.70;2.70;;;;;;;24.84;41.60;99230.42;108119;1253;62079;-64
2023/10/12 13:40:46;;;;;;;5.40;2.30;;;;;;;24.85;41.49;99235.25;108211;1254;59674;-62
2023/10/12 13:43:26;;;;;;;5.80;2.80;;;;;;;24.84;41.63;99233.64;107932;1253;73567;-65
2023/10/12 13:45:55;;;;;;;8.90;2.80;;;;;;;24.76;41.58;99239.77;108147;1254;69635;-63
2023/10/12 13:48:29;;;;;;;4.00;2.40;;;;;;;24.71;41.74;99240.66;108040;1254;75513;-62
2023/10/12 13:51:19;;;;;;;9.90;2.70;;;;;;;24.69;41.99;99237.73;108271;1254;60169;-64
2023/10/12 13:53:49;;;;;;;4.80;2.80;;;;;;;24.64;41.99;99240.69;108282;1254;60275;-65
2023/10/12 13:56:20;;;;;;;6.80;2.80;;;;;;;24.65;42.47;99249.99;108227;1253;73208;-65
2023/10/12 13:59:03;;;;;;;8.20;2.40;;;;;;;24.65;42.32;99254.52;108159;1254;69777;-63
2023/10/12 14:01:36;;;;;;;8.40;3.20;;;;;;;24.61;42.52;99259.59;108091;1254;72927;-62
2023/10/12 14:04:22;;;;;;;8.20;2.80;;;;;;;24.53;42.41;99266.01;108204;1254;59853;-62
2023/10/12 14:06:52;;;;;;;6.90;2.50;;;;;;;24.44;42.65;99263.20;108361;1253;59755;-63
2023/10/12 14:09:27;;;;;;;10.90;3.40;;;;;;;24.39;42.71;99263.92;108229;1253;73702;-62
2023/10/12 14:11:56;;;;;;;7.00;2.70;;;;;;;24.31;42.89;99258.70;108070;1253;69769;-64
2023/10/12 14:14:24;;;;;;;6.30;2.90;;;;;;;24.22;42.94;99257.98;108004;1256;72298;-63
2023/10/12 14:16:52;;;;;;;5.50;2.90;;;;;;;24.17;43.15;99267.64;107772;1253;60780;-63
2023/10/12 14:19:24;;;;;;;13.30;3.00;;;;;;;24.14;43.43;99263.91;108054;1253;59758;-62
2023/10/12 14:21:52;;;;;;;11.50;2.70;;;;;;;24.07;43.50;99261.89;108005;1254;73208;-63
2023/10/12 14:24:24;;;;;;;9.80;3.10;;;;;;;24.00;43.34;99258.04;107974;1254;68776;-65